Time;durP1;ratioP1;P1;durP2;ratioP2;P2;SDS_P1;SDS_P2;PMS_P1;PMS_P2;Temp;Humidity;BMP_temperature;BMP_pressure;BME280_temperature;BME280_humidity;BME280_pressure;Samples;Min_cycle;Max_cycle;Signal;HPM_P1;HPM_P2
2022/08/06 00:01:08;;;;;;;;;;;;;;;13.50;100.00;-6709.13;5095896;28;19916;-79
2022/08/06 00:03:36;;;;;;;;;;;;;;;13.51;100.00;-8026.91;5095206;28;19926;-79
2022/08/06 00:06:01;;;;;;;;;;;;;;;13.43;100.00;-9344.00;5079706;28;19917;-79
2022/08/06 00:08:27;;;;;;;;;;;;;;;13.43;100.00;-10660.75;5074975;28;19927;-81
2022/08/06 00:10:52;;;;;;;;;;;;;;;13.45;100.00;-11319.03;5075053;28;20369;-80
2022/08/06 00:13:18;;;;;;;;;;;;;;;13.48;100.00;-11319.22;5074629;28;20007;-81
2022/08/06 00:15:44;;;;;;;;;;;;;;;13.45;100.00;-11648.09;5112457;28;19928;-79
2022/08/06 00:18:09;;;;;;;;;;;;;;;13.40;100.00;-12305.78;5088628;28;19912;-80
2022/08/06 00:20:36;;;;;;;;;;;;;;;13.36;100.00;-13621.00;5073711;28;19921;-80
2022/08/06 00:23:02;;;;;;;;;;;;;;;13.39;100.00;-14607.78;5074721;28;19916;-80
2022/08/06 00:25:28;;;;;;;;;;;;;;;13.36;100.00;-15593.53;5108568;28;19923;-79
2022/08/06 00:27:53;;;;;;;;;;;;;;;13.33;100.00;-16250.41;5074784;28;19916;-79
2022/08/06 00:30:18;;;;;;;;;;;;;;;13.34;100.00;-16579.03;5074452;28;20388;-80
2022/08/06 00:32:49;;;;;;;;;;;;;;;13.34;100.00;-16907.66;5091550;28;19927;-81
2022/08/06 00:35:14;;;;;;;;;;;;;;;13.31;100.00;-17235.72;5074269;28;20007;-80
2022/08/06 00:37:39;;;;;;;;;;;;;;;13.34;100.00;-17564.69;5074708;28;20402;-80
2022/08/06 00:40:05;;;;;;;;;;;;;;;13.32;100.00;-17564.28;5089134;28;19981;-81
2022/08/06 00:42:38;;;;;;;;;;;;;;;13.24;100.00;-17234.69;5095790;28;19918;-80
2022/08/06 00:45:04;;;;;;;;;;;;;;;13.27;100.00;-17892.06;5094033;28;19920;-78
2022/08/06 00:47:30;;;;;;;;;;;;;;;13.18;100.00;-18218.91;5084603;28;20020;-80
2022/08/06 00:49:55;;;;;;;;;;;;;;;13.22;100.00;-19861.09;5073838;28;19995;-79
2022/08/06 00:52:20;;;;;;;;;;;;;;;13.17;100.00;-21828.63;5074222;28;20372;-80
2022/08/06 00:54:45;;;;;;;;;;;;;;;13.19;100.00;-25108.06;5091107;28;20398;-79
2022/08/06 00:57:11;;;;;;;;;;;;;;;13.16;100.00;-25437.00;5074869;28;19920;-80
2022/08/06 00:59:36;;;;;;;;;;;;;;;13.19;100.00;-25437.72;5092210;28;19941;-79
2022/08/06 01:02:01;;;;;;;;;;;;;;;13.14;100.00;-25436.41;5093011;28;20395;-79
2022/08/06 01:04:30;;;;;;;;;;;;;;;13.10;100.00;-25435.25;5090698;28;19920;-79
2022/08/06 01:06:56;;;;;;;;;;;;;;;13.09;100.00;-25435.09;5074376;28;19917;-80
2022/08/06 01:09:21;;;;;;;;;;;;;;;13.03;100.00;-25433.22;5074150;28;20058;-80
2022/08/06 01:11:46;;;;;;;;;;;;;;;13.06;100.00;-25434.09;5073613;28;20321;-79
2022/08/06 01:14:17;;;;;;;;;;;;;;;13.08;100.00;-25434.66;5073491;28;20009;-80
2022/08/06 01:16:51;;;;;;;;;;;;;;;13.07;100.00;-25434.53;5107682;28;20046;-79
2022/08/06 01:19:25;;;;;;;;;;;;;;;13.08;100.00;-25434.81;5085360;28;20346;-79
2022/08/06 01:22:00;;;;;;;;;;;;;;;13.08;100.00;-25434.66;5093933;28;19922;-79
2022/08/06 01:24:30;;;;;;;;;;;;;;;13.08;100.00;-25434.66;5076600;28;20019;-81
2022/08/06 01:27:01;;;;;;;;;;;;;;;12.99;100.00;-25432.03;5078165;28;19998;-80
2022/08/06 01:29:29;;;;;;;;;;;;;;;12.94;100.00;-25430.72;5088048;28;19924;-81
2022/08/06 01:31:59;;;;;;;;;;;;;;;12.97;100.00;-25431.59;5053596;28;19947;-81
2022/08/06 01:34:29;;;;;;;;;;;;;;;12.91;100.00;-25429.84;5071471;28;20300;-81
2022/08/06 01:37:10;;;;;;;;;;;;;;;12.87;100.00;-25428.69;5107442;28;19923;-80
2022/08/06 01:39:37;;;;;;;;;;;;;;;12.85;100.00;-25428.25;5107135;28;20282;-81
2022/08/06 01:42:03;;;;;;;;;;;;;;;12.87;100.00;-25428.69;5078697;28;19916;-81
2022/08/06 01:44:30;;;;;;;;;;;;;;;12.87;100.00;-25428.81;5091450;28;19924;-80
2022/08/06 01:46:58;;;;;;;;;;;;;;;12.83;100.00;-25427.66;5090538;28;19977;-80
2022/08/06 01:49:25;;;;;;;;;;;;;;;12.78;100.00;-25426.19;5078145;28;19962;-80
2022/08/06 01:51:51;;;;;;;;;;;;;;;12.75;100.00;-25425.31;5076899;28;19966;-79
2022/08/06 01:54:18;;;;;;;;;;;;;;;12.70;100.00;-25424.00;5095261;28;19923;-79
2022/08/06 01:56:44;;;;;;;;;;;;;;;12.75;100.00;-25425.31;5063056;28;19920;-80
2022/08/06 01:59:12;;;;;;;;;;;;;;;12.74;100.00;-25425.03;5086388;28;19916;-79
2022/08/06 02:01:37;;;;;;;;;;;;;;;12.71;100.00;-25424.16;5092096;28;19943;-81
2022/08/06 02:04:06;;;;;;;;;;;;;;;12.73;100.00;-25424.88;5085682;28;20377;-81
2022/08/06 02:06:33;;;;;;;;;;;;;;;12.71;100.00;-25424.16;5087896;28;19921;-80
2022/08/06 02:09:02;;;;;;;;;;;;;;;12.63;100.00;-25421.81;5106495;28;19928;-79
2022/08/06 02:11:28;;;;;;;;;;;;;;;12.56;100.00;-25420.06;5073000;28;19994;-79
2022/08/06 02:13:57;;;;;;;;;;;;;;;12.58;100.00;-25420.50;5086303;28;20147;-80
2022/08/06 02:16:23;;;;;;;;;;;;;;;12.53;100.00;-25419.03;5092667;28;19970;-81
2022/08/06 02:18:50;;;;;;;;;;;;;;;12.54;100.00;-25419.47;5079891;28;19923;-79
2022/08/06 02:21:17;;;;;;;;;;;;;;;12.57;100.00;-25420.19;5072196;28;19924;-80
2022/08/06 02:23:50;;;;;;;;;;;;;;;12.57;100.00;-25420.34;5084664;28;20289;-78
2022/08/06 02:26:16;;;;;;;;;;;;;;;12.61;100.00;-25421.22;5092465;28;19969;-81
2022/08/06 02:28:43;;;;;;;;;;;;;;;12.62;100.00;-25421.53;5092870;28;19994;-80
2022/08/06 02:31:08;;;;;;;;;;;;;;;12.59;100.00;-25420.78;5091846;28;20284;-80
2022/08/06 02:33:34;;;;;;;;;;;;;;;12.62;100.00;-25421.53;5079956;28;19930;-80
2022/08/06 02:36:04;;;;;;;;;;;;;;;12.61;100.00;-25421.22;5106710;28;19917;-81
2022/08/06 02:38:38;;;;;;;;;;;;;;;12.54;100.00;-25419.31;5072528;28;19920;-80
2022/08/06 02:41:16;;;;;;;;;;;;;;;12.46;100.00;-25417.13;5091276;28;20019;-81
2022/08/06 02:43:48;;;;;;;;;;;;;;;12.46;100.00;-25416.97;5093125;28;19981;-80
2022/08/06 02:46:22;;;;;;;;;;;;;;;12.48;100.00;-25417.72;5092855;28;19920;-82
2022/08/06 02:48:53;;;;;;;;;;;;;;;12.43;100.00;-25416.25;5079064;28;19916;-81
2022/08/06 02:51:25;;;;;;;;;;;;;;;12.44;100.00;-25416.53;5072528;28;19923;-81
2022/08/06 02:54:09;;;;;;;;;;;;;;;12.44;100.00;-25416.53;5082692;28;19920;-82
2022/08/06 02:56:37;;;;;;;;;;;;;;;12.50;100.00;-25418.16;5077961;28;19967;-80
2022/08/06 02:59:05;;;;;;;;;;;;;;;12.47;100.00;-25417.41;5072168;28;19917;-80
2022/08/06 03:01:36;;;;;;;;;;;;;;;12.45;100.00;-25416.69;5073945;28;20412;-82
2022/08/06 03:04:02;;;;;;;;;;;;;;;12.44;100.00;-25416.53;5093283;28;19970;-81
2022/08/06 03:06:32;;;;;;;;;;;;;;;12.39;100.00;-25415.09;5092707;28;19916;-81
2022/08/06 03:08:59;;;;;;;;;;;;;;;12.41;100.00;-25415.53;5073340;28;19920;-81
2022/08/06 03:11:25;;;;;;;;;;;;;;;12.39;100.00;-25415.22;5072542;28;19928;-81
2022/08/06 03:13:52;;;;;;;;;;;;;;;12.37;100.00;-25414.66;5081736;28;19955;-81
2022/08/06 03:16:18;;;;;;;;;;;;;;;12.36;100.00;-25414.22;5090959;28;19916;-80
2022/08/06 03:18:45;;;;;;;;;;;;;;;12.34;100.00;-25413.75;5092352;28;20396;-81
2022/08/06 03:21:11;;;;;;;;;;;;;;;12.33;100.00;-25413.31;5092212;28;20831;-81
2022/08/06 03:23:38;;;;;;;;;;;;;;;12.36;100.00;-25414.22;5091922;28;19920;-81
2022/08/06 03:26:03;;;;;;;;;;;;;;;12.33;100.00;-25413.47;5092180;28;20022;-80
2022/08/06 03:28:31;;;;;;;;;;;;;;;12.30;100.00;-25412.44;5088782;28;19944;-81
2022/08/06 03:30:56;;;;;;;;;;;;;;;12.31;100.00;-25412.75;5072921;28;19959;-81
2022/08/06 03:33:22;;;;;;;;;;;;;;;12.30;100.00;-25412.59;5070318;28;19924;-79
2022/08/06 03:35:48;;;;;;;;;;;;;;;12.28;100.00;-25411.88;5071279;28;20089;-81
2022/08/06 03:38:14;;;;;;;;;;;;;;;12.26;100.00;-25411.28;5073020;28;19924;-81
2022/08/06 03:40:41;;;;;;;;;;;;;;;12.27;100.00;-25411.56;5073265;28;19959;-81
2022/08/06 03:43:14;;;;;;;;;;;;;;;12.25;100.00;-25411.13;5072779;28;19916;-81
2022/08/06 03:45:42;;;;;;;;;;;;;;;12.25;100.00;-25411.13;5084673;28;19920;-81
2022/08/06 03:48:11;;;;;;;;;;;;;;;12.28;100.00;-25412.00;5093289;28;19916;-81
2022/08/06 03:50:38;;;;;;;;;;;;;;;12.25;100.00;-25411.13;5091942;28;19912;-82
2022/08/06 03:53:08;;;;;;;;;;;;;;;12.21;100.00;-25410.13;5091373;28;19920;-80
2022/08/06 03:55:34;;;;;;;;;;;;;;;12.16;100.00;-25408.66;5093913;28;19916;-80
2022/08/06 03:58:06;;;;;;;;;;;;;;;12.22;100.00;-25410.25;5079823;28;19928;-81
2022/08/06 04:00:40;;;;;;;;;;;;;;;12.24;100.00;-25410.69;5082858;28;19928;-80
2022/08/06 04:03:07;;;;;;;;;;;;;;;12.15;100.00;-25408.34;5088076;28;19920;-80
2022/08/06 04:05:33;;;;;;;;;;;;;;;12.11;100.00;-25407.03;5075104;28;19913;-80
2022/08/06 04:08:00;;;;;;;;;;;;;;;12.05;100.00;-25405.44;5074594;28;20319;-81
2022/08/06 04:10:46;;;;;;;;;;;;;;;11.96;100.00;-25402.78;5097903;28;19928;-81
2022/08/06 04:13:20;;;;;;;;;;;;;;;11.98;100.00;-25403.53;5056382;28;19916;-80
2022/08/06 04:15:45;;;;;;;;;;;;;;;12.02;100.00;-25404.69;5095109;28;20376;-81
2022/08/06 04:18:15;;;;;;;;;;;;;;;12.08;100.00;-25406.31;5069457;28;19931;-80
2022/08/06 04:20:41;;;;;;;;;;;;;;;12.07;100.00;-25406.00;5074895;28;19917;-81
2022/08/06 04:23:09;;;;;;;;;;;;;;;12.05;100.00;-25405.44;5079907;28;19920;-79
2022/08/06 04:25:36;;;;;;;;;;;;;;;12.07;100.00;-25405.88;5094544;28;19942;-80
2022/08/06 04:28:02;;;;;;;;;;;;;;;12.14;100.00;-25408.06;5095140;28;20311;-80
2022/08/06 04:30:27;;;;;;;;;;;;;;;12.26;100.00;-25411.44;5088877;28;20031;-80
2022/08/06 04:32:53;;;;;;;;;;;;;;;12.28;100.00;-25411.88;5074577;28;20607;-81
2022/08/06 04:35:19;;;;;;;;;;;;;;;12.38;100.00;-25414.94;5074317;28;20372;-80
2022/08/06 04:37:44;;;;;;;;;;;;;;;12.48;100.00;-25417.56;5074450;28;19973;-80
2022/08/06 04:40:10;;;;;;;;;;;;;;;12.60;100.00;-25421.09;5090852;28;20011;-80
2022/08/06 04:42:52;;;;;;;;;;;;;;;12.79;100.00;-25426.47;5074305;28;19916;-81
2022/08/06 04:45:17;;;;;;;;;;;;;;;14.07;100.00;-25462.84;5075096;28;20001;-80
2022/08/06 04:47:43;;;;;;;;;;;;;;;15.43;100.00;-25501.44;5073919;28;19967;-80
2022/08/06 04:50:10;;;;;;;;;;;;;;;15.87;100.00;-25513.66;5088000;28;20375;-80
2022/08/06 04:52:37;;;;;;;;;;;;;;;15.55;100.00;-25504.63;5091861;28;20011;-80
2022/08/06 04:55:02;;;;;;;;;;;;;;;15.08;100.00;-25491.53;5073716;28;20020;-81
2022/08/06 04:57:27;;;;;;;;;;;;;;;14.66;100.00;-25479.59;5107837;28;20330;-81
2022/08/06 04:59:54;;;;;;;;;;;;;;;14.55;100.00;-25476.53;5089322;28;19932;-81
2022/08/06 05:02:20;;;;;;;;;;;;;;;14.63;100.00;-25478.56;5107939;28;19916;-81
2022/08/06 05:04:45;;;;;;;;;;;;;;;14.41;100.00;-24485.19;5073200;28;20333;-82
2022/08/06 05:07:40;;;;;;;;;;;;;;;15.06;100.00;-24831.44;5075218;28;20368;-82
2022/08/06 05:10:06;;;;;;;;;;;;;;;14.92;100.00;-19565.16;5077619;28;19916;-81
2022/08/06 05:13:01;;;;;;;;;;;;;;;14.53;100.00;-17254.59;5078950;28;19921;-81
2022/08/06 05:15:29;;;;;;;;;;;;;;;14.76;100.00;-17916.50;5065110;28;19916;-80
2022/08/06 05:18:03;;;;;;;;;;;;;;;15.53;100.00;-16280.75;5086255;28;20006;-79
2022/08/06 05:20:32;;;;;;;;;;;;;;;16.37;100.00;-10344.59;5094227;28;20014;-81
2022/08/06 05:23:21;;;;;;;;;;;;;;;16.21;100.00;-1075.94;5076160;28;20321;-80
2022/08/06 05:25:47;;;;;;;;;;;;;;;16.25;100.00;5890.56;5093419;28;19947;-80
2022/08/06 05:28:12;;;;;;;;;;;;;;;16.01;100.00;9538.09;5088477;28;19927;-77
2022/08/06 05:30:41;;;;;;;;;;;;;;;16.19;100.00;8878.28;5072752;28;19917;-77
2022/08/06 05:33:07;;;;;;;;;;;;;;;15.91;100.00;9535.31;5072384;28;19916;-80
2022/08/06 05:35:34;;;;;;;;;;;;;;;15.86;100.00;6877.81;5056435;28;19920;-80
2022/08/06 05:38:00;;;;;;;;;;;;;;;16.01;100.00;5221.69;5056270;28;19924;-79
2022/08/06 05:40:25;;;;;;;;;;;;;;;16.19;100.00;6553.41;5076576;28;19916;-79
2022/08/06 05:42:57;;;;;;;;;;;;;;;16.13;100.00;7548.19;5075080;28;19916;-80
2022/08/06 05:45:23;;;;;;;;;;;;;;;16.19;100.00;5889.38;5065456;28;19920;-77
2022/08/06 05:47:48;;;;;;;;;;;;;;;16.43;100.00;7223.09;5056136;28;19924;-77
2022/08/06 05:50:20;;;;;;;;;;;;;;;16.92;100.00;10228.22;5073168;28;19928;-80
2022/08/06 05:53:08;;;;;;;;;;;;;;;17.31;100.00;19239.09;5056579;28;19916;-80
2022/08/06 05:55:42;;;;;;;;;;;;;;;17.68;100.00;38670.19;5076051;28;19916;-79
2022/08/06 05:58:12;;;;;;;;;;;;;;;17.74;100.00;50438.66;5065925;28;20529;-82
2022/08/06 06:00:38;;;;;;;;;;;;;;;18.20;100.00;58911.91;5075883;28;19998;-79
2022/08/06 06:03:06;;;;;;;;;;;;;;;19.10;100.00;82062.25;5073709;28;20020;-75
2022/08/06 06:05:31;;;;;;;;;;;;;;;20.26;100.00;147818.63;5061005;28;19916;-77
2022/08/06 06:07:57;;;;;;;;;;;;;;;20.61;100.00;147905.72;5086550;28;19982;-77
2022/08/06 06:10:23;;;;;;;;;;;;;;;19.54;100.00;147639.31;5065667;28;20338;-79
2022/08/06 06:12:51;;;;;;;;;;;;;;;19.23;100.00;147561.19;5075141;28;19916;-78
2022/08/06 06:15:17;;;;;;;;;;;;;;;18.82;100.00;147460.03;5073982;28;19920;-80
2022/08/06 06:18:19;;;;;;;;;;;;;;;18.69;100.00;147425.47;5066542;28;20035;-77
2022/08/06 06:21:03;;;;;;;;;;;;;;;18.29;100.00;147328.25;5014864;28;19921;-79
2022/08/06 06:23:29;;;;;;;;;;;;;;;18.34;100.00;147338.50;5072700;28;19916;-76
2022/08/06 06:26:09;;;;;;;;;;;;;;;18.56;100.00;147394.78;5075012;28;19965;-76
2022/08/06 06:28:47;;;;;;;;;;;;;;;18.95;100.00;147492.06;5053000;28;19924;-80
2022/08/06 06:31:12;;;;;;;;;;;;;;;18.56;100.00;147393.50;5075149;28;20018;-80
2022/08/06 06:33:50;;;;;;;;;;;;;;;18.41;100.00;147356.38;5071439;28;19967;-78
2022/08/06 06:36:15;;;;;;;;;;;;;;;18.35;100.00;147342.34;5072467;28;19989;-80
2022/08/06 06:38:40;;;;;;;;;;;;;;;18.38;100.00;147348.72;5072419;28;20357;-80
2022/08/06 06:41:23;;;;;;;;;;;;;;;18.46;100.00;147369.22;5072228;28;19993;-80
2022/08/06 06:43:53;;;;;;;;;;;;;;;19.04;100.00;147513.84;5071707;28;19916;-80
2022/08/06 06:46:33;;;;;;;;;;;;;;;18.89;100.00;147476.72;5105136;28;19917;-80
2022/08/06 06:49:01;;;;;;;;;;;;;;;18.59;100.00;147402.44;5071725;28;19923;-78
2022/08/06 06:51:29;;;;;;;;;;;;;;;18.79;100.00;147452.34;5071672;28;19935;-78
2022/08/06 06:53:59;;;;;;;;;;;;;;;18.59;100.00;147402.44;5071335;28;20015;-79
2022/08/06 06:56:31;;;;;;;;;;;;;;;18.20;100.00;147305.22;5071555;28;19924;-82
2022/08/06 06:58:59;;;;;;;;;;;;;;;18.17;100.00;147297.56;5071020;28;19924;-80
2022/08/06 07:01:28;;;;;;;;;;;;;;;18.11;100.00;147282.22;5070937;28;19955;-79
2022/08/06 07:03:54;;;;;;;;;;;;;;;18.13;100.00;147287.31;5070624;28;19950;-78
2022/08/06 07:06:20;;;;;;;;;;;;;;;18.17;100.00;147297.56;5105402;28;20327;-81
2022/08/06 07:08:47;;;;;;;;;;;;;;;18.17;100.00;147297.56;5071257;28;19913;-78
2022/08/06 07:11:16;;;;;;;;;;;;;;;17.87;100.00;147222.06;5071141;28;20288;-80
2022/08/06 07:13:45;;;;;;;;;;;;;;;18.03;100.00;147263.03;5071900;28;19955;-79
2022/08/06 07:16:12;;;;;;;;;;;;;;;18.45;100.00;147366.63;5079376;28;20054;-79
2022/08/06 07:18:38;;;;;;;;;;;;;;;19.87;100.00;147720.00;5072038;28;20376;-82
2022/08/06 07:21:04;;;;;;;;;;;;;;;21.07;100.00;148019.84;5069740;28;19916;-79
2022/08/06 07:23:31;;;;;;;;;;;;;;;21.64;100.00;148160.91;5072114;28;19921;-79
2022/08/06 07:25:58;;;;;;;;;;;;;;;22.28;100.00;148319.91;5071293;28;19916;-81
2022/08/06 07:28:25;;;;;;;;;;;;;;;22.91;100.00;148477.78;5075181;28;19916;-81
2022/08/06 07:30:51;;;;;;;;;;;;;;;22.76;100.00;148440.56;5076593;28;20324;-80
2022/08/06 07:33:19;;;;;;;;;;;;;;;22.22;100.00;148307.09;5084587;28;20033;-80
2022/08/06 07:35:45;;;;;;;;;;;;;;;22.89;100.00;148473.94;5095120;28;19950;-80
2022/08/06 07:38:12;;;;;;;;;;;;;;;22.31;100.00;148328.97;5092492;28;19968;-82
2022/08/06 07:40:50;;;;;;;;;;;;;;;23.51;100.00;148626.69;5095425;28;19916;-80
2022/08/06 07:43:25;;;;;;;;;;;;;;;23.10;100.00;148525.31;5096254;28;19916;-81
2022/08/06 07:45:50;;;;;;;;;;;;;;;22.75;100.00;148439.28;5087007;28;19920;-81
2022/08/06 07:48:18;;;;;;;;;;;;;;;23.64;100.00;148661.38;5074666;28;19921;-81
2022/08/06 07:50:47;;;;;;;;;;;;;;;23.41;100.00;148603.59;5073413;28;19958;-80
2022/08/06 07:53:14;;;;;;;;;;;;;;;21.93;100.00;148234.00;5075226;28;20043;-81
2022/08/06 07:55:39;;;;;;;;;;;;;;;21.33;100.00;148083.91;5074238;28;19912;-80
2022/08/06 07:58:06;;;;;;;;;;;;;;;21.50;100.00;148126.28;5072394;28;19986;-79
2022/08/06 08:00:31;;;;;;;;;;;;;;;22.82;100.00;148455.94;5073321;28;19919;-78
2022/08/06 08:08:25;;;;;;;;;;;;;;;24.32;100.00;148830.94;5074737;28;19970;-78
2022/08/06 08:10:51;;;;;;;;;;;;;;;23.51;100.00;148626.69;5074394;28;19920;-80
2022/08/06 08:13:18;;;;;;;;;;;;;;;23.75;100.00;148687.06;5074119;28;19964;-78
2022/08/06 08:15:44;;;;;;;;;;;;;;;23.90;100.00;148724.38;5072920;28;20284;-77
2022/08/06 08:18:10;;;;;;;;;;;;;;;24.13;100.00;148782.09;5072941;28;19917;-78
2022/08/06 08:20:37;;;;;;;;;;;;;;;22.22;100.00;148307.09;5072837;28;19917;-78
2022/08/06 08:23:04;;;;;;;;;;;;;;;22.39;100.00;148348.22;5073036;28;20003;-78
2022/08/06 08:25:29;;;;;;;;;;;;;;;21.73;100.00;148182.72;5072524;28;19966;-81
2022/08/06 08:27:54;;;;;;;;;;;;;;;21.19;100.00;148049.31;5072335;28;19982;-76
2022/08/06 08:30:19;;;;;;;;;;;;;;;21.01;100.00;148004.47;5073329;28;19923;-80
2022/08/06 08:32:45;;;;;;;;;;;;;;;20.97;100.00;147994.19;5073095;28;19916;-78
2022/08/06 08:35:11;;;;;;;;;;;;;;;20.94;100.00;147986.50;5073291;28;19920;-78
2022/08/06 08:37:36;;;;;;;;;;;;;;;21.64;100.00;148162.22;5072750;28;19923;-80
2022/08/06 08:40:03;;;;;;;;;;;;;;;21.64;100.00;148162.22;5073041;28;19916;-79
2022/08/06 08:42:35;;;;;;;;;;;;;;;22.03;100.00;148259.66;5072621;28;19913;-78
2022/08/06 08:45:01;;;;;;;;;;;;;;;22.91;100.00;148479.06;5106902;28;20010;-80
2022/08/06 08:47:28;;;;;;;;;;;;;;;24.33;100.00;148832.19;5073420;28;20359;-77
2022/08/06 08:49:55;;;;;;;;;;;;;;;24.62;100.00;148904.22;5080982;28;19920;-77
2022/08/06 08:52:32;;;;;;;;;;;;;;;24.17;100.00;148792.41;5093393;28;20360;-78
2022/08/06 08:55:00;;;;;;;;;;;;;;;24.18;100.00;148794.97;5093352;28;19916;-78
2022/08/06 08:57:26;;;;;;;;;;;;;;;24.10;100.00;148775.72;5078255;28;19913;-77
2022/08/06 08:59:51;;;;;;;;;;;;;;;24.56;100.00;148890.00;5075152;28;19928;-81
2022/08/06 09:02:16;;;;;;;;;;;;;;;24.21;100.00;148802.69;5072218;28;19922;-77
2022/08/06 09:04:42;;;;;;;;;;;;;;;23.06;100.00;148516.28;5105856;28;20376;-79
2022/08/06 09:07:08;;;;;;;;;;;;;;;22.15;100.00;148287.88;5106289;28;19923;-78
2022/08/06 09:09:34;;;;;;;;;;;;;;;22.08;100.00;148271.19;5073720;28;19923;-78
2022/08/06 09:12:00;;;;;;;;;;;;;;;21.47;100.00;148119.84;5072458;28;19916;-78
2022/08/06 09:14:32;;;;;;;;;;;;;;;21.64;100.00;148160.91;5073090;28;19916;-78
2022/08/06 09:16:59;;;;;;;;;;;;;;;21.14;100.00;148037.78;5106949;28;19917;-73
2022/08/06 09:19:24;;;;;;;;;;;;;;;20.59;100.00;147899.34;5073953;28;19958;-78
2022/08/06 09:21:50;;;;;;;;;;;;;;;20.32;100.00;147831.44;5078479;28;19924;-79
2022/08/06 09:24:15;;;;;;;;;;;;;;;20.25;100.00;147814.78;5072019;28;20010;-77
2022/08/06 09:27:01;;;;;;;;;;;;;;;20.84;100.00;147960.91;5106734;28;19917;-80
2022/08/06 09:29:26;;;;;;;;;;;;;;;21.27;100.00;148069.84;5106219;28;20376;-81
2022/08/06 09:31:51;;;;;;;;;;;;;;;21.99;100.00;148249.38;5106035;28;19962;-79
2022/08/06 09:34:16;;;;;;;;;;;;;;;22.34;100.00;148336.66;5104806;28;19943;-79
2022/08/06 09:36:43;;;;;;;;;;;;;;;22.72;100.00;148430.31;5106551;28;20395;-78
2022/08/06 09:39:08;;;;;;;;;;;;;;;22.89;100.00;148472.66;5106413;28;19916;-80
2022/08/06 09:41:36;;;;;;;;;;;;;;;23.37;100.00;148592.03;5072477;28;19936;-76
2022/08/06 09:44:10;;;;;;;;;;;;;;;23.52;100.00;148630.53;5103922;28;19979;-78
2022/08/06 09:46:38;;;;;;;;;;;;;;;22.00;100.00;148250.66;5106911;28;20404;-79
2022/08/06 09:49:03;;;;;;;;;;;;;;;22.59;100.00;148399.53;5073193;28;19916;-80
2022/08/06 09:51:30;;;;;;;;;;;;;;;22.29;100.00;148323.75;5071587;28;19916;-80
2022/08/06 09:53:59;;;;;;;;;;;;;;;22.51;100.00;148377.69;5078950;28;19930;-76
2022/08/06 09:56:25;;;;;;;;;;;;;;;22.56;100.00;148391.81;5080326;28;19923;-78
2022/08/06 09:58:56;;;;;;;;;;;;;;;21.98;100.00;148245.53;5087537;28;19920;-81
2022/08/06 10:01:23;;;;;;;;;;;;;;;22.35;100.00;148337.94;5113111;27;20019;-79
2022/08/06 10:03:50;;;;;;;;;;;;;;;21.67;100.00;148168.59;5071753;28;19920;-78
2022/08/06 10:06:20;;;;;;;;;;;;;;;20.99;100.00;147999.38;5071968;28;19923;-81
2022/08/06 10:08:45;;;;;;;;;;;;;;;21.01;100.00;148004.47;5072715;28;19913;-81
2022/08/06 10:11:11;;;;;;;;;;;;;;;21.39;100.00;148099.31;5073685;28;20015;-80
2022/08/06 10:13:39;;;;;;;;;;;;;;;22.10;100.00;148276.31;5092878;28;19916;-81
2022/08/06 10:16:15;;;;;;;;;;;;;;;22.68;100.00;148421.31;5080660;28;19977;-81
2022/08/06 10:18:42;;;;;;;;;;;;;;;23.05;100.00;148512.44;5105302;28;19916;-81
2022/08/06 10:21:08;;;;;;;;;;;;;;;22.79;100.00;148448.25;5072071;28;19923;-81
2022/08/06 10:23:38;;;;;;;;;;;;;;;22.91;100.00;148477.78;5071997;28;20381;-81
2022/08/06 10:26:04;;;;;;;;;;;;;;;22.33;100.00;148334.09;5087572;28;19924;-80
2022/08/06 10:28:31;;;;;;;;;;;;;;;21.70;100.00;148176.28;5070603;28;20536;-80
2022/08/06 10:30:57;;;;;;;;;;;;;;;21.23;100.00;148058.31;5072159;28;19916;-80
2022/08/06 10:33:24;;;;;;;;;;;;;;;20.61;100.00;147904.47;5070926;28;19928;-78
2022/08/06 10:35:52;;;;;;;;;;;;;;;20.60;100.00;147901.88;5073672;28;19955;-77
2022/08/06 10:38:20;;;;;;;;;;;;;;;20.97;100.00;147994.19;5073409;28;20505;-77
2022/08/06 10:40:48;;;;;;;;;;;;;;;21.42;100.00;148107.00;5074777;28;19954;-76
2022/08/06 10:43:15;;;;;;;;;;;;;;;21.47;100.00;148118.53;5074049;28;20038;-78
2022/08/06 10:45:40;;;;;;;;;;;;;;;22.05;100.00;148263.50;5057079;28;19920;-79
2022/08/06 10:48:07;;;;;;;;;;;;;;;22.69;100.00;148422.63;5074025;28;19916;-77
2022/08/06 10:50:32;;;;;;;;;;;;;;;22.53;100.00;148384.13;5073530;28;19923;-78
2022/08/06 10:52:59;;;;;;;;;;;;;;;22.43;100.00;148357.19;5057126;28;19920;-77
2022/08/06 10:55:25;;;;;;;;;;;;;;;22.00;100.00;148251.97;5054885;28;19920;-78
2022/08/06 10:57:50;;;;;;;;;;;;;;;21.69;100.00;148175.00;5072886;28;19923;-79
2022/08/06 11:00:15;;;;;;;;;;;;;;;21.84;100.00;148210.91;5054832;28;19916;-76
2022/08/06 11:03:00;;;;;;;;;;;;;;;22.02;100.00;148255.81;5055422;28;19921;-78
2022/08/06 11:05:30;;;;;;;;;;;;;;;22.30;100.00;148326.41;5059128;28;19917;-78
2022/08/06 11:08:07;;;;;;;;;;;;;;;22.83;100.00;148457.25;5058944;28;19931;-77
2022/08/06 11:10:44;;;;;;;;;;;;;;;23.16;100.00;148540.72;5058400;28;19990;-77
2022/08/06 11:13:19;;;;;;;;;;;;;;;22.83;100.00;148458.53;5059420;28;19920;-78
2022/08/06 11:15:44;;;;;;;;;;;;;;;23.08;100.00;148521.44;5077961;28;19925;-80
2022/08/06 11:18:11;;;;;;;;;;;;;;;23.80;100.00;148701.19;5077432;28;19916;-80
2022/08/06 11:20:39;;;;;;;;;;;;;;;23.76;100.00;148690.91;5078136;28;19920;-79
2022/08/06 11:23:08;;;;;;;;;;;;;;;22.92;100.00;148480.38;5077930;28;20316;-78
2022/08/06 11:25:36;;;;;;;;;;;;;;;22.58;100.00;148396.94;5093946;28;19950;-78
2022/08/06 11:28:04;;;;;;;;;;;;;;;22.37;100.00;148344.38;5075584;28;20550;-77
2022/08/06 11:30:55;;;;;;;;;;;;;;;22.08;100.00;148271.19;5057846;28;20360;-78
2022/08/06 11:33:43;;;;;;;;;;;;;;;22.16;100.00;148290.44;5055090;28;20288;-77
2022/08/06 11:36:10;;;;;;;;;;;;;;;22.12;100.00;148281.44;5047295;28;19967;-80
2022/08/06 11:38:48;;;;;;;;;;;;;;;22.67;100.00;148417.44;5053035;28;19923;-80
2022/08/06 11:41:17;;;;;;;;;;;;;;;22.75;100.00;148438.00;5074445;28;19978;-78
2022/08/06 11:43:52;;;;;;;;;;;;;;;22.93;100.00;148484.22;5067613;28;20391;-78
2022/08/06 11:46:25;;;;;;;;;;;;;;;22.66;100.00;148414.91;5057125;28;19916;-78
2022/08/06 11:48:59;;;;;;;;;;;;;;;22.74;100.00;148435.44;5056762;28;19924;-76
2022/08/06 11:51:43;;;;;;;;;;;;;;;22.87;100.00;148468.81;5091353;28;19927;-76
2022/08/06 11:54:11;;;;;;;;;;;;;;;23.14;100.00;148535.59;5090591;28;19923;-79
2022/08/06 11:56:55;;;;;;;;;;;;;;;23.30;100.00;148576.69;5057385;28;20558;-78
2022/08/06 11:59:22;;;;;;;;;;;;;;;22.86;100.00;148466.22;5083409;28;19999;-75
2022/08/06 12:01:47;;;;;;;;;;;;;;;22.33;100.00;148332.81;5037245;28;19919;-76
2022/08/06 12:07:22;;;;;;;;;;;;;;;22.66;100.00;148414.91;5064087;28;19921;-78
2022/08/06 12:10:03;;;;;;;;;;;;;;;23.09;100.00;148522.78;5036696;28;19916;-76
2022/08/06 12:12:28;;;;;;;;;;;;;;;22.51;100.00;148379.00;5079620;28;19917;-76
2022/08/06 12:15:00;;;;;;;;;;;;;;;22.19;100.00;148299.41;5089819;28;20239;-78
2022/08/06 12:17:27;;;;;;;;;;;;;;;21.79;100.00;148199.38;5055975;28;19921;-77
2022/08/06 12:19:53;;;;;;;;;;;;;;;22.40;100.00;148350.75;5056897;28;19938;-77
2022/08/06 12:22:20;;;;;;;;;;;;;;;22.26;100.00;148314.78;5056747;28;19916;-77
2022/08/06 12:24:48;;;;;;;;;;;;;;;22.66;100.00;148416.19;5067470;28;20424;-76
2022/08/06 12:27:13;;;;;;;;;;;;;;;22.64;100.00;148409.75;5075510;28;20323;-79
2022/08/06 12:29:39;;;;;;;;;;;;;;;22.65;100.00;148412.34;5068871;28;19916;-76
2022/08/06 12:32:25;;;;;;;;;;;;;;;22.45;100.00;148362.28;5036580;28;19925;-80
2022/08/06 12:34:51;;;;;;;;;;;;;;;22.09;100.00;148272.47;5064627;28;19920;-78
2022/08/06 12:37:17;;;;;;;;;;;;;;;21.89;100.00;148223.72;5077344;28;19923;-81
2022/08/06 12:42:27;;;;;;;;;;;;;;;22.25;100.00;148313.53;5074644;28;19923;-80
2022/08/06 12:44:53;;;;;;;;;;;;;;;22.24;100.00;148312.22;5073369;28;19921;-81
2022/08/06 12:47:19;;;;;;;;;;;;;;;22.44;100.00;148359.75;5073447;28;19921;-82